createdAt,value
2023-03-19T00:00:39.006Z,98103.81
2023-03-19T00:03:05.833Z,98097.84
2023-03-19T00:05:32.863Z,98102.22
2023-03-19T00:07:59.616Z,98102.00
2023-03-19T00:10:26.346Z,98102.53
2023-03-19T00:12:53.004Z,98111.09
2023-03-19T00:15:19.769Z,98109.06
2023-03-19T00:17:46.414Z,98105.25
2023-03-19T00:20:14.949Z,98105.97
2023-03-19T00:22:41.861Z,98109.97
2023-03-19T00:25:09.832Z,98106.41
2023-03-19T00:27:38.142Z,98108.78
2023-03-19T00:30:06.928Z,98115.44
2023-03-19T00:32:35.616Z,98111.16
2023-03-19T00:35:03.672Z,98108.97
2023-03-19T00:37:30.395Z,98113.19
2023-03-19T00:39:56.982Z,98109.16
2023-03-19T00:42:23.990Z,98122.97
2023-03-19T00:44:51.025Z,98121.81
2023-03-19T00:47:17.852Z,98125.63
2023-03-19T00:49:44.547Z,98121.34
2023-03-19T00:52:11.200Z,98129.72
2023-03-19T00:54:39.749Z,98132.44
2023-03-19T00:57:06.496Z,98126.94
2023-03-19T00:59:33.281Z,98136.53
2023-03-19T01:02:00.088Z,98128.84
2023-03-19T01:04:27.047Z,98130.22
2023-03-19T01:06:53.860Z,98120.16
2023-03-19T01:09:20.513Z,98118.38
2023-03-19T01:11:47.133Z,98117.63
2023-03-19T01:14:17.023Z,98116.47
2023-03-19T01:16:43.678Z,98124.94
2023-03-19T01:19:10.444Z,98128.44
2023-03-19T01:21:37.114Z,98127.91
2023-03-19T01:24:04.364Z,98125.72
2023-03-19T01:26:31.340Z,98126.44
2023-03-19T01:29:10.160Z,98129.38
2023-03-19T01:31:37.276Z,98128.56
2023-03-19T01:34:33.650Z,98121.00
2023-03-19T01:37:12.628Z,98126.88
2023-03-19T01:39:40.590Z,98128.38
2023-03-19T01:42:10.781Z,98133.34
2023-03-19T01:44:46.654Z,98135.31
2023-03-19T01:47:33.330Z,98139.19
2023-03-19T01:50:34.933Z,98142.78
2023-03-19T01:53:27.724Z,98142.41
2023-03-19T01:56:16.239Z,98140.25
2023-03-19T01:59:17.007Z,98132.56
2023-03-19T02:02:21.428Z,98139.34
2023-03-19T02:04:53.650Z,98130.75
2023-03-19T02:07:20.445Z,98135.81
2023-03-19T02:09:47.428Z,98139.28
2023-03-19T02:12:14.966Z,98141.84
2023-03-19T02:14:41.834Z,98133.34
2023-03-19T02:17:08.582Z,98139.84
2023-03-19T02:19:40.979Z,98133.28
2023-03-19T02:22:11.020Z,98133.97
2023-03-19T02:24:51.143Z,98138.25
2023-03-19T02:27:19.786Z,98143.03
2023-03-19T02:29:49.591Z,98139.78
2023-03-19T02:32:16.691Z,98147.00
2023-03-19T02:34:44.118Z,98142.66
2023-03-19T02:37:22.824Z,98140.88
2023-03-19T02:39:58.237Z,98134.47
2023-03-19T02:42:28.823Z,98126.41
2023-03-19T02:44:57.418Z,98132.69
2023-03-19T02:47:26.103Z,98134.00
2023-03-19T02:49:53.073Z,98137.31
2023-03-19T02:52:19.987Z,98135.06
2023-03-19T02:54:46.847Z,98132.38
2023-03-19T02:57:13.579Z,98128.97
2023-03-19T02:59:40.359Z,98134.56
2023-03-19T03:02:08.161Z,98133.41
2023-03-19T03:04:35.244Z,98135.06
2023-03-19T03:07:02.290Z,98137.06
2023-03-19T03:09:28.961Z,98144.16
2023-03-19T03:11:55.945Z,98148.19
2023-03-19T03:14:23.023Z,98154.91
2023-03-19T03:16:49.702Z,98150.41
2023-03-19T03:19:16.905Z,98157.53
2023-03-19T03:21:43.594Z,98148.38
2023-03-19T03:24:10.952Z,98148.19
2023-03-19T03:26:38.938Z,98147.81
2023-03-19T03:29:06.945Z,98147.50
2023-03-19T03:31:34.794Z,98152.00
2023-03-19T03:34:01.955Z,98151.84
2023-03-19T03:36:28.846Z,98160.00
2023-03-19T03:38:56.006Z,98165.91
2023-03-19T03:41:22.934Z,98170.59
2023-03-19T03:43:50.391Z,98170.91
2023-03-19T03:46:19.167Z,98169.22
2023-03-19T03:48:49.169Z,98165.91
2023-03-19T03:51:16.593Z,98167.28
2023-03-19T03:53:44.866Z,98165.28
2023-03-19T03:56:12.431Z,98171.47
2023-03-19T03:58:39.333Z,98168.69
2023-03-19T04:01:07.199Z,98177.25
2023-03-19T04:03:34.054Z,98167.13
2023-03-19T04:06:00.797Z,98172.50
2023-03-19T04:08:27.728Z,98175.63
2023-03-19T04:10:54.336Z,98185.06
2023-03-19T04:13:20.991Z,98173.78
2023-03-19T04:15:48.623Z,98176.00
2023-03-19T04:18:15.701Z,98168.88
2023-03-19T04:20:42.961Z,98174.78
2023-03-19T04:23:10.223Z,98176.84
2023-03-19T04:25:40.351Z,98170.06
2023-03-19T04:28:07.106Z,98172.59
2023-03-19T04:30:35.418Z,98166.53
2023-03-19T04:33:03.385Z,98167.75
2023-03-19T04:35:31.321Z,98169.38
2023-03-19T04:37:58.428Z,98169.16
2023-03-19T04:40:25.258Z,98161.50
2023-03-19T04:42:51.940Z,98163.19
2023-03-19T04:45:37.040Z,98155.22
2023-03-19T04:48:03.983Z,98159.88
2023-03-19T04:50:33.218Z,98165.06
2023-03-19T04:53:00.537Z,98167.00
2023-03-19T04:55:27.897Z,98173.16
2023-03-19T04:58:02.039Z,98168.69
2023-03-19T05:00:32.103Z,98169.31
2023-03-19T05:02:59.535Z,98172.88
2023-03-19T05:05:28.125Z,98174.34
2023-03-19T05:07:55.161Z,98164.53
2023-03-19T05:10:21.966Z,98170.88
2023-03-19T05:12:48.620Z,98167.34
2023-03-19T05:15:16.044Z,98174.78
2023-03-19T05:17:55.084Z,98172.28
2023-03-19T05:20:23.718Z,98175.16
2023-03-19T05:23:03.015Z,98177.34
2023-03-19T05:25:50.634Z,98173.06
2023-03-19T05:28:22.755Z,98180.84
2023-03-19T05:30:49.527Z,98182.44
2023-03-19T05:33:22.481Z,98185.06
2023-03-19T05:35:51.144Z,98188.09
2023-03-19T05:38:38.064Z,98183.59
2023-03-19T05:41:09.094Z,98182.56
2023-03-19T05:43:43.937Z,98192.03
2023-03-19T05:46:19.395Z,98189.88
2023-03-19T05:48:46.181Z,98198.50
2023-03-19T05:51:12.841Z,98191.44
2023-03-19T05:53:42.805Z,98189.28
2023-03-19T05:56:31.778Z,98187.41
2023-03-19T05:59:17.368Z,98191.91
2023-03-19T06:01:51.892Z,98194.72
2023-03-19T06:04:19.310Z,98205.47
2023-03-19T06:06:47.184Z,98210.19
2023-03-19T06:09:14.089Z,98205.31
2023-03-19T06:11:43.443Z,98211.25
2023-03-19T06:14:30.734Z,98221.13
2023-03-19T06:17:23.856Z,98213.34
2023-03-19T06:19:50.718Z,98219.34
2023-03-19T06:22:17.414Z,98219.78
2023-03-19T06:24:44.758Z,98220.47
2023-03-19T06:27:11.719Z,98211.47
2023-03-19T06:29:38.588Z,98224.88
2023-03-19T06:32:25.766Z,98226.63
2023-03-19T06:34:55.048Z,98225.25
2023-03-19T06:37:22.259Z,98229.00
2023-03-19T06:39:49.485Z,98230.31
2023-03-19T06:42:16.218Z,98224.41
2023-03-19T06:44:43.032Z,98228.59
2023-03-19T06:47:09.852Z,98229.19
2023-03-19T06:49:39.461Z,98222.22
2023-03-19T06:52:06.391Z,98225.38
2023-03-19T06:54:33.609Z,98224.72
2023-03-19T06:57:00.346Z,98233.66
2023-03-19T06:59:27.009Z,98225.88
2023-03-19T07:01:53.795Z,98222.31
2023-03-19T07:04:20.438Z,98226.00
2023-03-19T07:06:47.330Z,98232.72
2023-03-19T07:09:14.330Z,98234.66
2023-03-19T07:11:41.230Z,98231.28
2023-03-19T07:14:08.020Z,98238.78
2023-03-19T07:16:34.966Z,98239.56
2023-03-19T07:19:01.711Z,98235.81
2023-03-19T07:21:29.051Z,98239.19
2023-03-19T07:23:55.957Z,98243.31
2023-03-19T07:26:22.617Z,98244.84
2023-03-19T07:28:49.292Z,98239.88
2023-03-19T07:31:16.982Z,98236.44
2023-03-19T07:33:43.918Z,98241.38
2023-03-19T07:36:11.170Z,98238.03
2023-03-19T07:38:37.887Z,98248.38
2023-03-19T07:41:04.866Z,98252.50
2023-03-19T07:43:31.749Z,98256.25
2023-03-19T07:45:59.371Z,98251.31
2023-03-19T07:48:26.628Z,98245.88
2023-03-19T07:50:54.270Z,98257.13
2023-03-19T07:53:21.018Z,98260.06
2023-03-19T07:55:48.406Z,98258.84
2023-03-19T07:58:15.472Z,98253.50
2023-03-19T08:00:42.569Z,98247.88
2023-03-19T08:03:09.198Z,98251.31
2023-03-19T08:05:35.940Z,98239.41
2023-03-19T08:08:02.756Z,98244.06
2023-03-19T08:10:29.455Z,98244.16
2023-03-19T08:12:56.116Z,98239.91
2023-03-19T08:15:22.862Z,98241.91
2023-03-19T08:17:49.920Z,98244.66
2023-03-19T08:20:16.964Z,98255.06
2023-03-19T08:22:43.826Z,98260.25
2023-03-19T08:25:11.302Z,98256.06
2023-03-19T08:27:38.157Z,98261.41
2023-03-19T08:30:07.635Z,98275.25
2023-03-19T08:32:34.910Z,98288.47
2023-03-19T08:35:02.238Z,98281.25
2023-03-19T08:37:28.993Z,98273.41
2023-03-19T08:39:55.916Z,98274.78
2023-03-19T08:42:22.820Z,98271.31
2023-03-19T08:44:50.432Z,98272.31
2023-03-19T08:47:17.118Z,98265.16
2023-03-19T08:49:43.780Z,98263.47
2023-03-19T08:52:10.641Z,98265.16
2023-03-19T08:54:37.384Z,98269.50
2023-03-19T08:57:04.203Z,98278.75
2023-03-19T08:59:33.957Z,98290.00
2023-03-19T09:02:01.563Z,98284.25
2023-03-19T09:04:29.089Z,98283.44
2023-03-19T09:06:56.065Z,98283.75
2023-03-19T09:09:24.180Z,98284.97
2023-03-19T09:11:51.133Z,98278.03
2023-03-19T09:14:19.869Z,98287.03
2023-03-19T09:16:47.050Z,98296.59
2023-03-19T09:19:14.106Z,98301.31
2023-03-19T09:21:41.079Z,98301.03
2023-03-19T09:24:07.846Z,98303.56
2023-03-19T09:26:34.770Z,98312.34
2023-03-19T09:29:02.143Z,98318.50
2023-03-19T09:31:29.878Z,98323.78
2023-03-19T09:33:56.860Z,98324.06
2023-03-19T09:36:23.848Z,98320.59
2023-03-19T09:38:50.654Z,98316.81
2023-03-19T09:41:46.845Z,98322.50
2023-03-19T09:44:21.564Z,98331.06
2023-03-19T09:47:09.538Z,98325.03
2023-03-19T09:49:43.657Z,98328.56
2023-03-19T09:52:29.012Z,98321.25
2023-03-19T09:55:00.593Z,98324.53
2023-03-19T09:57:29.781Z,98329.19
2023-03-19T09:59:56.625Z,98331.31
2023-03-19T10:02:37.952Z,98337.16
2023-03-19T10:05:06.276Z,98334.47
2023-03-19T10:07:51.654Z,98327.25
2023-03-19T10:10:51.836Z,98325.91
2023-03-19T10:13:44.972Z,98334.88
2023-03-19T10:16:18.919Z,98332.28
2023-03-19T10:18:49.938Z,98336.16
2023-03-19T10:21:24.108Z,98339.94
2023-03-19T10:23:57.765Z,98342.41
2023-03-19T10:26:31.281Z,98339.13
2023-03-19T10:29:07.141Z,98340.28
2023-03-19T10:31:43.729Z,98341.22
2023-03-19T10:34:23.220Z,98339.84
2023-03-19T10:36:49.912Z,98343.97
2023-03-19T10:39:18.920Z,98343.03
2023-03-19T10:41:45.759Z,98341.13
2023-03-19T10:44:22.123Z,98339.34
2023-03-19T10:46:48.823Z,98344.16
2023-03-19T10:49:16.326Z,98341.44
2023-03-19T10:51:46.574Z,98340.59
2023-03-19T10:54:21.092Z,98341.50
2023-03-19T10:56:48.337Z,98341.53
2023-03-19T10:59:24.968Z,98352.94
2023-03-19T11:02:01.471Z,98353.34
2023-03-19T11:04:29.682Z,98363.22
2023-03-19T11:07:03.791Z,98354.22
2023-03-19T11:09:38.841Z,98360.84
2023-03-19T11:12:33.828Z,98365.03
2023-03-19T11:15:03.953Z,98359.84
2023-03-19T11:17:39.492Z,98361.31
2023-03-19T11:20:20.736Z,98359.63
2023-03-19T11:22:49.592Z,98361.59
2023-03-19T11:25:19.666Z,98364.66
2023-03-19T11:28:21.110Z,98357.47
2023-03-19T11:30:51.246Z,98361.31
2023-03-19T11:33:42.895Z,98357.34
2023-03-19T11:36:27.516Z,98346.66
2023-03-19T11:39:22.216Z,98339.88
2023-03-19T11:42:06.957Z,98345.03
2023-03-19T11:44:45.789Z,98338.22
2023-03-19T11:47:27.644Z,98332.44
2023-03-19T11:50:18.126Z,98337.38
2023-03-19T11:52:48.722Z,98329.72
2023-03-19T11:55:25.625Z,98328.78
2023-03-19T11:58:17.983Z,98330.06
2023-03-19T12:00:50.739Z,98334.50
2023-03-19T12:03:37.058Z,98331.50
2023-03-19T12:06:49.029Z,98335.41
2023-03-19T12:09:29.695Z,98336.16
2023-03-19T12:12:26.697Z,98327.31
2023-03-19T12:15:06.609Z,98329.84
2023-03-19T12:17:59.520Z,98323.03
2023-03-19T12:20:32.463Z,98322.22
2023-03-19T12:23:28.461Z,98315.84
2023-03-19T12:26:06.375Z,98316.13
2023-03-19T12:28:36.228Z,98311.22
2023-03-19T12:31:25.040Z,98309.03
2023-03-19T12:34:09.802Z,98310.75
2023-03-19T12:36:48.717Z,98302.06
2023-03-19T12:39:28.744Z,98305.34
2023-03-19T12:41:58.338Z,98297.63
2023-03-19T12:44:41.593Z,98299.84
2023-03-19T12:47:16.829Z,98300.69
2023-03-19T12:50:02.716Z,98298.38
2023-03-19T12:52:36.504Z,98295.44
2023-03-19T12:55:37.427Z,98285.47
2023-03-19T12:58:06.642Z,98291.75
2023-03-19T13:00:40.834Z,98300.34
2023-03-19T13:03:18.607Z,98300.25
2023-03-19T13:06:11.005Z,98290.03
2023-03-19T13:08:45.355Z,98290.66
2023-03-19T13:11:21.918Z,98282.03
2023-03-19T13:14:09.605Z,98294.69
2023-03-19T13:16:50.944Z,98284.78
2023-03-19T13:19:39.535Z,98290.16
2023-03-19T13:22:10.490Z,98282.44
2023-03-19T13:24:39.635Z,98286.44
2023-03-19T13:27:14.716Z,98306.94
2023-03-19T13:29:56.018Z,98318.69
2023-03-19T13:32:27.228Z,98325.97
2023-03-19T13:35:28.908Z,98335.41
2023-03-19T13:38:21.066Z,98322.63
2023-03-19T13:40:50.377Z,98316.97
2023-03-19T13:43:28.453Z,98327.78
2023-03-19T13:46:15.757Z,98339.06
2023-03-19T13:48:45.470Z,98334.78
2023-03-19T13:51:18.268Z,98333.31
2023-03-19T13:54:16.333Z,98336.03
2023-03-19T13:57:01.537Z,98330.84
2023-03-19T13:59:32.813Z,98326.28
2023-03-19T14:02:01.248Z,98326.53
2023-03-19T14:04:37.235Z,98335.06
2023-03-19T14:07:22.190Z,98324.56
2023-03-19T14:09:51.515Z,98317.63
2023-03-19T14:12:18.175Z,98317.88
2023-03-19T14:14:55.948Z,98315.00
2023-03-19T14:17:27.640Z,98318.50
2023-03-19T14:19:54.599Z,98313.75
2023-03-19T14:22:36.922Z,98312.50
2023-03-19T14:25:17.955Z,98313.25
2023-03-19T14:27:48.187Z,98304.00
2023-03-19T14:30:26.295Z,98304.81
2023-03-19T14:32:56.747Z,98310.03
2023-03-19T14:35:26.062Z,98297.09
2023-03-19T14:37:54.201Z,98290.25
2023-03-19T14:40:29.918Z,98292.31
2023-03-19T14:42:59.372Z,98287.72
2023-03-19T14:45:47.904Z,98288.22
2023-03-19T14:48:35.983Z,98291.78
2023-03-19T14:51:24.488Z,98286.59
2023-03-19T14:53:58.744Z,98281.88
2023-03-19T14:56:35.908Z,98286.88
2023-03-19T14:59:07.719Z,98281.69
2023-03-19T15:01:41.104Z,98286.31
2023-03-19T15:04:11.409Z,98280.78
2023-03-19T15:06:43.397Z,98279.41
2023-03-19T15:09:33.696Z,98277.31
2023-03-19T15:12:18.056Z,98271.47
2023-03-19T15:15:27.047Z,98272.13
2023-03-19T15:18:04.566Z,98266.88
2023-03-19T15:20:36.863Z,98266.72
2023-03-19T15:23:16.357Z,98263.47
2023-03-19T15:25:53.009Z,98270.09
2023-03-19T15:28:19.967Z,98269.56
2023-03-19T15:31:03.503Z,98269.72
2023-03-19T15:33:42.747Z,98266.88
2023-03-19T15:36:26.870Z,98269.78
2023-03-19T15:39:08.056Z,98281.88
2023-03-19T15:41:40.540Z,98292.16
2023-03-19T15:44:12.786Z,98295.94
2023-03-19T15:46:41.642Z,98294.28
2023-03-19T15:49:13.184Z,98288.41
2023-03-19T15:51:40.719Z,98296.47
2023-03-19T15:54:07.648Z,98306.63
2023-03-19T15:56:34.911Z,98315.75
2023-03-19T15:59:03.256Z,98321.34
2023-03-19T16:01:33.087Z,98316.13
2023-03-19T16:04:02.330Z,98324.25
2023-03-19T16:06:49.585Z,98316.81
2023-03-19T16:09:22.333Z,98313.94
2023-03-19T16:11:49.280Z,98310.00
2023-03-19T16:14:19.019Z,98305.22
2023-03-19T16:16:46.944Z,98323.72
2023-03-19T16:19:37.376Z,98319.78
2023-03-19T16:22:16.308Z,98331.13
2023-03-19T16:24:45.405Z,98330.47
2023-03-19T16:27:17.684Z,98335.88
2023-03-19T16:29:47.071Z,98337.53
2023-03-19T16:32:22.622Z,98347.97
2023-03-19T16:34:55.429Z,98346.06
2023-03-19T16:37:47.747Z,98349.16
2023-03-19T16:40:17.336Z,98362.09
2023-03-19T16:42:50.890Z,98357.31
2023-03-19T16:45:29.177Z,98362.19
2023-03-19T16:48:03.312Z,98370.56
2023-03-19T16:50:36.238Z,98370.03
2023-03-19T16:53:06.226Z,98378.00
2023-03-19T16:55:35.532Z,98379.13
2023-03-19T16:58:04.243Z,98384.53
2023-03-19T17:00:33.055Z,98383.78
2023-03-19T17:03:00.612Z,98388.75
2023-03-19T17:05:28.899Z,98389.50
2023-03-19T17:07:56.360Z,98394.75
2023-03-19T17:10:26.777Z,98399.16
2023-03-19T17:12:54.908Z,98395.31
2023-03-19T17:15:41.782Z,98395.72
2023-03-19T17:18:22.048Z,98404.50
2023-03-19T17:21:15.756Z,98402.91
2023-03-19T17:23:43.986Z,98411.97
2023-03-19T17:26:17.737Z,98409.19
2023-03-19T17:28:44.760Z,98403.91
2023-03-19T17:31:20.915Z,98415.31
2023-03-19T17:33:48.195Z,98421.09
2023-03-19T17:36:15.547Z,98421.84
2023-03-19T17:38:42.320Z,98423.94
2023-03-19T17:41:14.900Z,98425.13
2023-03-19T17:43:41.557Z,98429.53
2023-03-19T17:46:12.746Z,98425.91
2023-03-19T17:48:39.387Z,98435.72
2023-03-19T17:51:06.245Z,98429.53
2023-03-19T17:53:33.264Z,98437.00
2023-03-19T17:55:59.937Z,98427.41
2023-03-19T17:58:26.636Z,98438.00
2023-03-19T18:00:53.590Z,98427.09
2023-03-19T18:03:22.550Z,98433.66
2023-03-19T18:05:52.627Z,98435.13
2023-03-19T18:08:23.630Z,98428.72
2023-03-19T18:10:51.165Z,98432.41
2023-03-19T18:13:17.884Z,98433.97
2023-03-19T18:15:45.560Z,98435.81
2023-03-19T18:18:18.859Z,98444.81
2023-03-19T18:20:47.314Z,98444.31
2023-03-19T18:23:16.083Z,98444.31
2023-03-19T18:25:46.430Z,98443.50
2023-03-19T18:28:13.463Z,98457.69
2023-03-19T18:30:41.551Z,98454.22
2023-03-19T18:33:15.682Z,98458.75
2023-03-19T18:35:45.447Z,98472.34
2023-03-19T18:38:21.228Z,98467.94
2023-03-19T18:40:48.054Z,98473.03
2023-03-19T18:43:16.305Z,98472.84
2023-03-19T18:45:45.372Z,98487.19
2023-03-19T18:48:24.231Z,98486.09
2023-03-19T18:50:52.058Z,98485.91
2023-03-19T18:53:18.923Z,98482.91
2023-03-19T18:55:46.410Z,98494.28
2023-03-19T18:58:20.305Z,98492.06
2023-03-19T19:00:47.552Z,98499.91
2023-03-19T19:03:17.095Z,98499.09
2023-03-19T19:05:44.514Z,98496.63
2023-03-19T19:08:17.445Z,98501.81
2023-03-19T19:10:47.915Z,98510.72
2023-03-19T19:13:28.358Z,98522.97
2023-03-19T19:15:55.200Z,98524.63
2023-03-19T19:18:28.997Z,98528.34
2023-03-19T19:20:55.875Z,98528.47
2023-03-19T19:23:26.775Z,98538.41
2023-03-19T19:25:57.407Z,98535.91
2023-03-19T19:28:27.868Z,98532.47
2023-03-19T19:30:57.368Z,98544.06
2023-03-19T19:33:33.078Z,98544.81
2023-03-19T19:35:59.829Z,98553.69
2023-03-19T19:38:26.603Z,98552.97
2023-03-19T19:40:55.544Z,98556.34
2023-03-19T19:43:25.083Z,98561.50
2023-03-19T19:45:55.759Z,98568.91
2023-03-19T19:48:25.455Z,98571.88
2023-03-19T19:50:52.965Z,98564.59
2023-03-19T19:53:23.245Z,98583.13
2023-03-19T19:55:50.039Z,98585.00
2023-03-19T19:58:18.950Z,98589.34
2023-03-19T20:01:00.201Z,98592.88
2023-03-19T20:03:31.443Z,98591.41
2023-03-19T20:05:59.307Z,98594.81
2023-03-19T20:08:26.984Z,98600.69
2023-03-19T20:10:54.794Z,98598.38
2023-03-19T20:13:37.720Z,98603.69
2023-03-19T20:16:05.376Z,98608.75
2023-03-19T20:18:35.206Z,98612.84
2023-03-19T20:21:04.013Z,98616.25
2023-03-19T20:23:31.324Z,98617.56
2023-03-19T20:25:58.303Z,98619.09
2023-03-19T20:28:30.386Z,98627.84
2023-03-19T20:30:57.116Z,98627.28
2023-03-19T20:33:24.429Z,98628.88
2023-03-19T20:35:51.720Z,98629.47
2023-03-19T20:38:18.480Z,98635.63
2023-03-19T20:40:46.778Z,98630.63
2023-03-19T20:43:34.686Z,98636.13
2023-03-19T20:46:04.449Z,98636.78
2023-03-19T20:48:32.529Z,98641.84
2023-03-19T20:51:00.893Z,98641.25
2023-03-19T20:53:28.574Z,98647.06
2023-03-19T20:55:56.310Z,98648.31
2023-03-19T20:58:29.884Z,98645.31
2023-03-19T21:00:57.883Z,98654.94
2023-03-19T21:03:27.164Z,98660.25
2023-03-19T21:06:06.646Z,98664.53
2023-03-19T21:08:33.358Z,98664.66
2023-03-19T21:11:00.911Z,98670.16
2023-03-19T21:13:28.286Z,98671.84
2023-03-19T21:15:55.618Z,98667.41
2023-03-19T21:18:22.414Z,98672.00
2023-03-19T21:20:55.702Z,98665.03
2023-03-19T21:23:34.659Z,98670.53
2023-03-19T21:26:09.030Z,98672.06
2023-03-19T21:28:37.818Z,98667.06
2023-03-19T21:31:06.157Z,98665.22
2023-03-19T21:33:35.381Z,98667.81
2023-03-19T21:36:03.174Z,98663.75
2023-03-19T21:38:29.930Z,98659.81
2023-03-19T21:41:00.380Z,98653.34
2023-03-19T21:43:38.369Z,98663.50
2023-03-19T21:46:21.329Z,98667.09
2023-03-19T21:48:50.284Z,98655.75
2023-03-19T21:51:16.949Z,98655.16
2023-03-19T21:53:45.563Z,98651.63
2023-03-19T21:56:33.414Z,98648.78
2023-03-19T21:59:02.271Z,98649.06
2023-03-19T22:01:29.290Z,98646.50
2023-03-19T22:03:57.616Z,98642.31
2023-03-19T22:06:25.183Z,98639.53
2023-03-19T22:08:53.928Z,98637.97
2023-03-19T22:11:29.486Z,98628.66
2023-03-19T22:14:04.218Z,98628.41
2023-03-19T22:16:32.343Z,98635.41
2023-03-19T22:18:59.578Z,98633.34
2023-03-19T22:21:26.215Z,98639.91
2023-03-19T22:23:52.948Z,98636.09
2023-03-19T22:26:38.942Z,98635.03
2023-03-19T22:29:13.033Z,98635.84
2023-03-19T22:31:40.453Z,98633.19
2023-03-19T22:34:16.875Z,98645.44
2023-03-19T22:36:43.668Z,98642.72
2023-03-19T22:39:10.451Z,98641.03
2023-03-19T22:41:40.889Z,98648.56
2023-03-19T22:44:13.314Z,98654.94
2023-03-19T22:46:40.001Z,98648.72
2023-03-19T22:49:13.759Z,98654.97
2023-03-19T22:51:40.552Z,98652.56
2023-03-19T22:54:07.469Z,98646.97
2023-03-19T22:56:34.146Z,98655.03
2023-03-19T22:59:01.146Z,98661.03
2023-03-19T23:01:39.789Z,98665.09
2023-03-19T23:04:21.005Z,98665.81
2023-03-19T23:06:48.466Z,98662.53
2023-03-19T23:09:24.076Z,98662.84
2023-03-19T23:11:52.590Z,98666.56
2023-03-19T23:14:31.798Z,98666.34
2023-03-19T23:17:03.079Z,98662.16
2023-03-19T23:19:32.582Z,98662.16
2023-03-19T23:22:00.311Z,98662.78
2023-03-19T23:24:27.854Z,98658.66
2023-03-19T23:26:56.922Z,98666.59
2023-03-19T23:29:29.421Z,98664.81
2023-03-19T23:31:58.565Z,98670.72
2023-03-19T23:34:26.649Z,98669.03
2023-03-19T23:36:53.493Z,98668.16
2023-03-19T23:39:21.054Z,98670.72
2023-03-19T23:41:53.005Z,98676.06
2023-03-19T23:44:20.418Z,98667.25
2023-03-19T23:46:49.350Z,98668.66
2023-03-19T23:49:24.064Z,98677.22
2023-03-19T23:51:50.733Z,98685.91
2023-03-19T23:54:36.844Z,98685.41
2023-03-19T23:57:07.378Z,98691.38
2023-03-19T23:59:38.752Z,98695.41
